Botkinburg, Arkansas
Current Conditions -  °F | °C
As of 8:55 AM on Sunday 23 Nov 2014 (Local Time) from KCCA Reporting Station
Moderate Rain Moderate Rain  
Wind Chill: 57°   Ceiling: 800
Heat Index: 57°   Visibility: 4mi
Dew Point: 57°   Wind: 3mph
Humidity: 100%   Direction: 130°SE
Pressure: 29.61"   Gusts: NA
Location:  35.6269°N, 92.5508°W
Report Text: KCCA 231455Z AUTO 13003KT 4SM RA OVC008 14/14 A2961 RMK AO2 P0006
Loading
Personal Weather Stations






























Interactive Weather Map New forecast layout! Learn more

10-Day Weather Forecast

Advertisements
Track Severe Weather on mobile